Time;durP1;ratioP1;P1;durP2;ratioP2;P2;SDS_P1;SDS_P2;PMS_P1;PMS_P2;Temp;Humidity;BMP_temperature;BMP_pressure;BME280_temperature;BME280_humidity;BME280_pressure;Samples;Min_cycle;Max_cycle;Signal;HPM_P1;HPM_P2
2023/06/13 00:00:09;;;;;;;6.30;2.30;;;16.30;61.60;;;;;;5119052;27;20165;-66
2023/06/13 00:02:37;;;;;;;7.50;2.10;;;16.30;61.80;;;;;;5137447;27;20031;-66
2023/06/13 00:05:05;;;;;;;4.80;2.45;;;16.30;62.50;;;;;;5137555;27;20049;-66
2023/06/13 00:07:32;;;;;;;3.35;2.17;;;16.20;62.20;;;;;;5137111;27;20391;-66
2023/06/13 00:09:59;;;;;;;6.88;2.40;;;16.20;62.70;;;;;;5121038;27;20035;-66
2023/06/13 00:12:25;;;;;;;7.35;2.35;;;16.20;62.40;;;;;;5116685;28;20039;-66
2023/06/13 00:14:51;;;;;;;4.15;2.10;;;16.20;62.50;;;;;;5116175;28;20469;-66
2023/06/13 00:17:18;;;;;;;5.60;2.25;;;16.20;62.80;;;;;;5116641;28;20072;-66
2023/06/13 00:19:45;;;;;;;5.72;2.60;;;16.20;62.80;;;;;;5116160;28;20031;-66
2023/06/13 00:22:13;;;;;;;3.67;2.42;;;16.10;63.30;;;;;;5116491;28;20102;-66
2023/06/13 00:24:41;;;;;;;2.65;2.00;;;16.10;63.10;;;;;;5116099;28;20055;-66
2023/06/13 00:27:07;;;;;;;4.47;2.65;;;16.10;63.30;;;;;;5116407;28;20055;-66
2023/06/13 00:29:33;;;;;;;6.15;2.17;;;16.10;63.00;;;;;;5116292;28;20036;-66
2023/06/13 00:31:59;;;;;;;5.07;2.33;;;16.00;63.80;;;;;;5124131;27;20024;-66
2023/06/13 00:34:24;;;;;;;5.78;2.63;;;16.00;64.10;;;;;;5135854;27;20038;-66
2023/06/13 00:36:50;;;;;;;4.72;2.25;;;16.00;64.30;;;;;;5116722;27;20039;-66
2023/06/13 00:39:15;;;;;;;5.90;2.53;;;15.90;64.40;;;;;;5116176;28;20034;-66
2023/06/13 00:41:41;;;;;;;7.80;2.60;;;15.90;64.60;;;;;;5115936;28;20050;-66
2023/06/13 00:44:07;;;;;;;7.43;2.30;;;15.90;64.20;;;;;;5097782;28;20045;-66
2023/06/13 00:46:34;;;;;;;6.47;3.60;;;15.90;64.30;;;;;;5117756;28;20090;-66
2023/06/13 00:49:02;;;;;;;10.27;2.42;;;15.90;64.90;;;;;;5115552;28;20496;-66
2023/06/13 00:51:28;;;;;;;9.15;2.47;;;15.80;64.10;;;;;;5115980;28;20028;-66
2023/06/13 00:53:56;;;;;;;4.13;2.28;;;15.80;64.10;;;;;;5115497;28;20036;-65
2023/06/13 00:56:24;;;;;;;3.78;2.45;;;15.80;64.30;;;;;;5115754;28;20384;-66
2023/06/13 00:58:50;;;;;;;8.57;2.53;;;15.80;64.60;;;;;;5115712;28;20080;-66
2023/06/13 01:01:19;;;;;;;4.85;2.42;;;15.80;64.00;;;;;;5115721;28;20053;-66
2023/06/13 01:03:45;;;;;;;4.18;2.22;;;15.80;64.40;;;;;;5115374;28;20023;-66
2023/06/13 01:06:14;;;;;;;3.90;2.13;;;15.80;64.60;;;;;;5115569;28;20030;-66
2023/06/13 01:08:40;;;;;;;4.20;2.28;;;15.70;64.60;;;;;;5115663;28;20372;-66
2023/06/13 01:11:31;;;;;;;4.93;2.45;;;15.80;65.00;;;;;;5115582;28;20111;-66
2023/06/13 01:14:03;;;;;;;4.78;2.40;;;15.70;65.10;;;;;;5115237;28;20031;-66
2023/06/13 01:16:38;;;;;;;4.50;2.33;;;15.60;65.70;;;;;;5115504;28;20019;-66
2023/06/13 01:19:08;;;;;;;4.43;2.33;;;15.60;65.70;;;;;;5115085;28;20034;-66
2023/06/13 01:21:37;;;;;;;5.43;2.42;;;15.50;66.10;;;;;;5115542;28;20061;-66
2023/06/13 01:24:14;;;;;;;7.93;3.30;;;15.50;66.80;;;;;;5115163;28;20035;-66
2023/06/13 01:27:00;;;;;;;2.90;2.30;;;15.50;66.70;;;;;;5115306;28;20097;-66
2023/06/13 01:29:27;;;;;;;8.40;2.50;;;15.50;66.90;;;;;;5115215;28;20023;-66
2023/06/13 01:31:55;;;;;;;6.88;2.25;;;15.40;66.30;;;;;;5114573;28;20039;-66
2023/06/13 01:34:22;;;;;;;3.30;2.30;;;15.40;66.60;;;;;;5115259;28;20024;-66
2023/06/13 01:36:48;;;;;;;7.43;2.80;;;15.40;66.40;;;;;;5114878;28;20077;-66
2023/06/13 01:39:13;;;;;;;3.33;2.50;;;15.40;66.30;;;;;;5115013;28;20039;-66
2023/06/13 01:41:39;;;;;;;5.13;3.05;;;15.40;66.50;;;;;;5115150;28;20028;-65
2023/06/13 01:44:06;;;;;;;5.53;2.22;;;15.30;66.30;;;;;;5114594;28;20023;-66
2023/06/13 01:46:51;;;;;;;10.50;2.78;;;15.30;66.70;;;;;;5115309;28;20047;-66
2023/06/13 01:49:46;;;;;;;5.28;2.60;;;15.30;67.00;;;;;;5114816;28;20031;-66
2023/06/13 01:52:39;;;;;;;4.68;2.60;;;15.30;67.10;;;;;;5109426;28;20081;-66
2023/06/13 01:55:10;;;;;;;7.30;2.58;;;15.20;67.60;;;;;;5114518;28;20042;-66
2023/06/13 01:57:48;;;;;;;8.63;2.47;;;15.20;67.90;;;;;;5114920;28;20463;-66
2023/06/13 02:00:16;;;;;;;4.70;2.55;;;15.20;67.70;;;;;;5114735;28;20113;-66
2023/06/13 02:02:43;;;;;;;5.20;2.40;;;15.20;67.90;;;;;;5114677;28;20030;-66
2023/06/13 02:05:11;;;;;;;6.20;2.17;;;15.20;68.20;;;;;;5116349;27;20484;-66
2023/06/13 02:07:37;;;;;;;3.65;2.30;;;15.20;68.30;;;;;;5113575;28;20477;-66
2023/06/13 02:10:06;;;;;;;7.78;2.95;;;15.10;68.30;;;;;;5113985;28;20031;-66
2023/06/13 02:12:32;;;;;;;12.00;2.50;;;15.10;68.30;;;;;;5114457;28;20032;-66
2023/06/13 02:14:59;;;;;;;6.20;2.60;;;15.10;68.50;;;;;;5114077;28;20088;-66
2023/06/13 02:17:26;;;;;;;6.55;2.30;;;15.10;69.10;;;;;;5114266;28;20023;-66
2023/06/13 02:19:52;;;;;;;4.82;3.28;;;15.10;69.40;;;;;;5113968;28;20438;-66
2023/06/13 02:22:17;;;;;;;4.60;2.75;;;15.00;70.10;;;;;;5113991;28;20028;-66
2023/06/13 02:24:43;;;;;;;6.40;2.85;;;15.10;71.20;;;;;;5095875;28;20024;-66
2023/06/13 02:27:09;;;;;;;7.97;3.00;;;15.00;72.50;;;;;;5131101;27;20422;-66
2023/06/13 02:29:38;;;;;;;7.72;3.20;;;15.00;73.00;;;;;;5124641;27;20062;-66
2023/06/13 02:32:05;;;;;;;6.00;3.10;;;14.90;73.40;;;;;;5115234;27;20027;-67
2023/06/13 02:34:31;;;;;;;7.55;2.97;;;14.90;74.60;;;;;;5117152;27;20019;-66
2023/06/13 02:36:56;;;;;;;5.55;3.20;;;14.90;75.10;;;;;;5113517;28;20080;-66
2023/06/13 02:39:22;;;;;;;5.72;3.45;;;14.90;75.90;;;;;;5114174;28;20107;-66
2023/06/13 02:41:48;;;;;;;7.88;3.17;;;14.90;76.80;;;;;;5113891;28;20057;-66
2023/06/13 02:44:13;;;;;;;5.95;2.88;;;14.80;77.30;;;;;;5113450;28;20026;-66
2023/06/13 02:46:39;;;;;;;4.63;2.83;;;14.80;77.70;;;;;;5113745;28;20377;-66
2023/06/13 02:49:05;;;;;;;6.40;3.05;;;14.70;78.20;;;;;;5113286;28;20031;-67
2023/06/13 02:51:31;;;;;;;7.53;3.00;;;14.70;78.30;;;;;;5113778;28;20059;-66
2023/06/13 02:53:56;;;;;;;4.88;2.85;;;14.70;78.40;;;;;;5113017;28;20062;-67
2023/06/13 02:56:22;;;;;;;5.70;3.00;;;14.70;78.10;;;;;;5113574;28;20109;-67
2023/06/13 02:58:48;;;;;;;6.97;3.10;;;14.70;78.10;;;;;;5113882;28;20049;-67
2023/06/13 03:01:14;;;;;;;5.20;2.33;;;14.70;78.70;;;;;;5113158;28;20023;-65
2023/06/13 03:03:40;;;;;;;5.90;2.90;;;14.60;78.90;;;;;;5113488;28;20490;-66
2023/06/13 03:06:07;;;;;;;5.75;2.78;;;14.60;78.70;;;;;;5094775;28;20103;-66
2023/06/13 03:08:33;;;;;;;7.00;3.10;;;14.60;79.10;;;;;;5113356;28;20028;-66
2023/06/13 03:10:58;;;;;;;7.53;2.90;;;14.50;79.70;;;;;;5112658;28;20130;-66
2023/06/13 03:13:25;;;;;;;5.68;2.72;;;14.40;79.80;;;;;;5113070;28;20042;-66
2023/06/13 03:15:51;;;;;;;5.28;2.83;;;14.40;80.40;;;;;;5113348;28;20047;-65
2023/06/13 03:18:18;;;;;;;7.80;3.38;;;14.30;80.40;;;;;;5113140;28;20027;-66
2023/06/13 03:20:47;;;;;;;6.20;3.08;;;14.30;80.90;;;;;;5112024;28;20472;-66
2023/06/13 03:23:14;;;;;;;6.07;2.90;;;14.30;80.90;;;;;;5112855;28;20041;-66
2023/06/13 03:25:40;;;;;;;6.72;2.97;;;14.20;81.70;;;;;;5113173;28;20436;-65
2023/06/13 03:28:06;;;;;;;5.88;2.97;;;14.20;81.60;;;;;;5112765;28;20053;-67
2023/06/13 03:30:33;;;;;;;4.93;3.20;;;14.10;82.00;;;;;;5113090;28;20027;-65
2023/06/13 03:32:59;;;;;;;8.27;3.10;;;14.10;82.50;;;;;;5112525;28;20126;-67
2023/06/13 03:35:24;;;;;;;11.30;3.13;;;14.10;82.80;;;;;;5112818;28;20055;-66
2023/06/13 03:37:50;;;;;;;13.02;3.78;;;14.10;83.60;;;;;;5113082;28;20016;-66
2023/06/13 03:40:16;;;;;;;5.00;3.15;;;14.10;83.70;;;;;;5112651;28;20070;-65
2023/06/13 03:42:41;;;;;;;9.43;3.40;;;14.10;83.50;;;;;;5113137;28;20121;-65
2023/06/13 03:45:07;;;;;;;6.53;3.00;;;14.10;83.70;;;;;;5112487;28;20051;-65
2023/06/13 03:47:33;;;;;;;10.85;3.08;;;14.20;83.90;;;;;;5094491;28;20491;-65
2023/06/13 03:49:58;;;;;;;9.43;3.50;;;14.20;83.70;;;;;;5112235;28;20072;-66
2023/06/13 03:52:24;;;;;;;4.35;3.05;;;14.30;83.40;;;;;;5112910;28;20464;-66
2023/06/13 03:54:51;;;;;;;11.43;3.40;;;14.30;83.20;;;;;;5112894;28;20028;-66
2023/06/13 03:57:17;;;;;;;7.28;3.17;;;14.40;83.00;;;;;;5112141;28;20034;-66
2023/06/13 03:59:42;;;;;;;8.27;3.03;;;14.40;83.30;;;;;;5112565;28;20023;-66
2023/06/13 04:02:08;;;;;;;9.27;3.38;;;14.50;83.40;;;;;;5112172;28;20020;-65
2023/06/13 04:04:33;;;;;;;10.82;3.60;;;14.50;82.90;;;;;;5115367;28;20491;-65
2023/06/13 04:07:04;;;;;;;8.48;3.47;;;14.60;83.40;;;;;;5112459;28;20480;-65
2023/06/13 04:09:29;;;;;;;6.47;3.30;;;14.70;82.90;;;;;;5112425;28;20032;-65
2023/06/13 04:11:55;;;;;;;4.78;3.22;;;14.80;83.40;;;;;;5112802;28;20028;-65
2023/06/13 04:14:21;;;;;;;6.10;3.20;;;14.90;82.30;;;;;;5112338;28;20019;-65
2023/06/13 04:16:46;;;;;;;8.90;3.50;;;15.00;81.60;;;;;;5112705;28;20031;-66
2023/06/13 04:19:18;;;;;;;8.85;2.97;;;15.00;81.20;;;;;;5119435;28;20098;-66
2023/06/13 04:21:46;;;;;;;7.60;3.17;;;15.20;81.50;;;;;;5133158;28;20372;-67
2023/06/13 04:24:14;;;;;;;5.93;3.55;;;15.30;80.50;;;;;;5132723;28;20019;-67
2023/06/13 04:26:41;;;;;;;5.97;3.45;;;15.40;80.20;;;;;;5133089;28;20057;-67
2023/06/13 04:29:09;;;;;;;5.85;3.22;;;15.50;80.10;;;;;;5132680;28;20038;-67
2023/06/13 04:31:36;;;;;;;4.57;3.22;;;15.60;79.10;;;;;;5134766;27;20027;-67
2023/06/13 04:34:05;;;;;;;6.22;3.67;;;15.80;79.00;;;;;;5131154;27;20057;-66
2023/06/13 04:36:33;;;;;;;6.35;3.83;;;15.90;78.30;;;;;;5128213;27;20054;-67
2023/06/13 04:39:06;;;;;;;9.00;3.30;;;16.10;77.80;;;;;;5136574;27;20027;-67
2023/06/13 04:41:37;;;;;;;8.90;3.35;;;16.30;76.20;;;;;;5136699;27;20026;-67
2023/06/13 04:44:09;;;;;;;10.98;3.45;;;16.60;75.10;;;;;;5137148;27;20386;-67
2023/06/13 04:46:36;;;;;;;7.70;3.28;;;16.90;75.00;;;;;;5137586;27;20043;-66
2023/06/13 04:49:04;;;;;;;14.82;3.58;;;17.20;74.10;;;;;;5137255;27;20398;-68
2023/06/13 04:51:32;;;;;;;12.77;3.63;;;17.50;72.30;;;;;;5138290;27;20031;-67
2023/06/13 04:53:58;;;;;;;11.48;3.20;;;17.70;70.70;;;;;;5134536;27;20083;-66
2023/06/13 04:56:25;;;;;;;5.75;3.10;;;18.10;70.50;;;;;;5137510;27;20122;-66
2023/06/13 04:58:52;;;;;;;6.68;3.15;;;18.40;67.60;;;;;;5136753;27;20034;-66
2023/06/13 05:01:19;;;;;;;6.60;3.95;;;18.70;67.10;;;;;;5136026;27;20432;-66
2023/06/13 05:03:45;;;;;;;6.65;3.50;;;19.00;65.30;;;;;;5136637;27;20050;-66
2023/06/13 05:06:12;;;;;;;5.38;3.17;;;18.90;64.40;;;;;;5136006;27;20027;-66
2023/06/13 05:08:38;;;;;;;7.72;2.92;;;18.80;65.80;;;;;;5136103;27;20107;-67
2023/06/13 05:11:04;;;;;;;5.95;2.40;;;18.70;65.00;;;;;;5135731;27;20031;-67
2023/06/13 05:13:30;;;;;;;5.22;2.40;;;18.50;64.30;;;;;;5135960;27;20031;-66
2023/06/13 05:15:55;;;;;;;7.75;2.30;;;18.30;63.70;;;;;;5136054;27;20027;-65
2023/06/13 05:18:29;;;;;;;9.65;2.40;;;18.20;63.30;;;;;;5135636;27;20027;-66
2023/06/13 05:20:56;;;;;;;3.63;2.70;;;18.20;64.60;;;;;;5136155;27;20600;-66
2023/06/13 05:23:22;;;;;;;9.60;2.67;;;18.10;65.20;;;;;;5135483;27;20019;-67
2023/06/13 05:25:48;;;;;;;4.82;2.47;;;18.00;64.40;;;;;;5135767;27;20386;-67
2023/06/13 05:28:14;;;;;;;4.85;2.72;;;18.00;64.60;;;;;;5135337;27;20031;-66
2023/06/13 05:30:40;;;;;;;8.63;2.50;;;18.00;64.70;;;;;;5135731;27;20364;-66
2023/06/13 05:33:06;;;;;;;4.65;2.60;;;18.00;64.00;;;;;;5135065;27;20093;-64
2023/06/13 05:35:32;;;;;;;6.15;2.67;;;18.10;65.00;;;;;;5135795;27;20053;-66
2023/06/13 05:37:57;;;;;;;5.88;2.30;;;18.20;64.00;;;;;;5135633;27;20381;-66
2023/06/13 05:40:23;;;;;;;7.65;2.55;;;18.10;64.00;;;;;;5134912;27;20046;-65
2023/06/13 05:42:48;;;;;;;5.47;2.60;;;17.90;64.10;;;;;;5134599;27;20027;-65
2023/06/13 05:45:14;;;;;;;6.15;2.70;;;17.80;64.50;;;;;;5134734;27;20039;-65
2023/06/13 05:47:40;;;;;;;6.47;2.90;;;17.80;65.20;;;;;;5136037;27;20023;-65
2023/06/13 05:50:06;;;;;;;4.55;3.00;;;17.80;65.70;;;;;;5135991;27;20027;-69
2023/06/13 05:52:31;;;;;;;6.57;2.90;;;17.80;64.90;;;;;;5136818;27;20102;-67
2023/06/13 05:54:58;;;;;;;7.60;3.28;;;17.90;65.60;;;;;;5135224;27;20065;-66
2023/06/13 05:57:36;;;;;;;6.80;2.80;;;17.80;64.30;;;;;;5135089;27;20027;-67
2023/06/13 06:00:02;;;;;;;9.25;3.42;;;17.90;64.80;;;;;;5135282;27;20059;-66
2023/06/13 06:02:28;;;;;;;5.22;3.20;;;18.30;65.00;;;;;;5134649;27;20027;-66
2023/06/13 06:04:56;;;;;;;7.28;2.58;;;18.70;64.00;;;;;;5134860;27;20030;-67
2023/06/13 06:07:21;;;;;;;3.65;2.72;;;19.40;64.30;;;;;;5134658;27;20110;-66
2023/06/13 06:09:47;;;;;;;6.50;2.78;;;20.70;60.40;;;;;;5134601;27;20184;-66
2023/06/13 06:12:13;;;;;;;5.07;2.50;;;21.40;56.40;;;;;;5132979;27;20031;-67
2023/06/13 06:14:38;;;;;;;5.28;2.67;;;21.20;55.30;;;;;;5133147;27;20460;-67
2023/06/13 06:17:04;;;;;;;5.15;2.65;;;21.70;55.50;;;;;;5135027;27;20072;-67
2023/06/13 06:19:30;;;;;;;3.53;2.33;;;23.10;52.60;;;;;;5134416;27;20027;-67
2023/06/13 06:21:56;;;;;;;4.43;2.40;;;24.30;50.10;;;;;;5134712;27;20019;-67
2023/06/13 06:24:23;;;;;;;11.70;2.40;;;25.50;47.90;;;;;;5134621;27;20468;-66
2023/06/13 06:26:49;;;;;;;7.32;3.20;;;26.60;46.00;;;;;;5124585;27;20027;-67
2023/06/13 06:29:14;;;;;;;7.85;2.50;;;27.20;42.60;;;;;;5129373;27;20043;-67
2023/06/13 06:31:40;;;;;;;6.53;2.60;;;28.10;42.10;;;;;;5134808;27;20027;-67
2023/06/13 06:34:05;;;;;;;6.72;2.38;;;28.50;40.20;;;;;;5134393;27;20490;-65
2023/06/13 06:36:31;;;;;;;9.10;2.42;;;28.80;39.10;;;;;;5134123;27;20027;-66
2023/06/13 06:38:57;;;;;;;4.28;2.40;;;29.60;38.50;;;;;;5134200;27;20027;-65
2023/06/13 06:41:22;;;;;;;7.72;2.15;;;30.00;37.70;;;;;;5133770;27;20122;-66
2023/06/13 06:43:48;;;;;;;8.75;2.35;;;30.50;36.90;;;;;;5134328;27;20094;-66
2023/06/13 06:46:13;;;;;;;6.07;2.70;;;30.70;36.20;;;;;;5133919;27;20043;-66
2023/06/13 06:48:39;;;;;;;5.30;2.30;;;30.80;36.00;;;;;;5134021;27;20023;-66
2023/06/13 06:51:05;;;;;;;4.57;2.17;;;31.30;35.60;;;;;;5133911;27;20055;-66
2023/06/13 06:53:30;;;;;;;4.50;2.40;;;31.10;34.60;;;;;;5133409;27;20074;-66
2023/06/13 06:55:56;;;;;;;3.30;2.00;;;31.40;34.10;;;;;;5133949;27;20103;-66
2023/06/13 06:58:22;;;;;;;6.78;2.47;;;30.60;33.50;;;;;;5133287;27;20463;-66
2023/06/13 07:00:47;;;;;;;8.30;2.47;;;30.40;35.00;;;;;;5115172;27;20027;-66
2023/06/13 07:03:13;;;;;;;5.63;2.25;;;30.50;33.90;;;;;;5133249;27;20027;-66
2023/06/13 07:05:40;;;;;;;6.20;2.47;;;30.40;34.70;;;;;;5133596;27;20139;-66
2023/06/13 07:08:06;;;;;;;5.18;2.58;;;30.60;34.70;;;;;;5133263;27;20424;-66
2023/06/13 07:10:32;;;;;;;5.18;1.90;;;30.60;35.20;;;;;;5133393;27;20023;-68
2023/06/13 07:12:58;;;;;;;4.32;2.15;;;30.80;35.10;;;;;;5133458;27;20031;-65
2023/06/13 07:15:23;;;;;;;7.05;2.60;;;30.60;34.40;;;;;;5133063;27;20030;-67
2023/06/13 07:17:50;;;;;;;8.63;2.30;;;30.70;35.20;;;;;;5133707;27;20023;-67
2023/06/13 07:20:15;;;;;;;4.00;2.05;;;30.70;35.70;;;;;;5133424;27;20027;-68
2023/06/13 07:22:42;;;;;;;5.00;2.00;;;31.40;34.80;;;;;;5133713;27;20466;-68
2023/06/13 07:25:07;;;;;;;3.15;2.17;;;31.70;34.10;;;;;;5115177;28;20344;-67
2023/06/13 07:27:33;;;;;;;5.00;1.85;;;31.80;33.30;;;;;;5133236;27;20034;-68
2023/06/13 07:29:59;;;;;;;4.80;2.38;;;31.50;32.90;;;;;;5133593;27;20034;-67
2023/06/13 07:32:26;;;;;;;6.32;2.20;;;31.60;32.50;;;;;;5133270;27;20042;-68
2023/06/13 07:34:51;;;;;;;4.35;2.17;;;31.80;31.80;;;;;;5133525;28;20023;-67
2023/06/13 07:37:17;;;;;;;6.40;2.20;;;31.60;31.20;;;;;;5114844;28;20445;-67
2023/06/13 07:39:42;;;;;;;4.78;2.08;;;31.30;31.40;;;;;;5133663;28;20106;-67
2023/06/13 07:42:08;;;;;;;3.65;1.70;;;30.50;31.50;;;;;;5133583;28;20023;-67
2023/06/13 07:44:34;;;;;;;4.47;1.98;;;30.00;32.90;;;;;;5132873;28;20030;-66
2023/06/13 07:47:00;;;;;;;3.38;1.92;;;30.20;32.60;;;;;;5133614;28;20069;-67
2023/06/13 07:49:25;;;;;;;3.35;2.05;;;30.00;33.80;;;;;;5132845;28;20100;-67
2023/06/13 07:51:51;;;;;;;4.85;1.90;;;30.40;33.10;;;;;;5133407;28;20027;-67
2023/06/13 07:54:17;;;;;;;6.57;1.98;;;30.70;33.10;;;;;;5133030;28;20057;-67
2023/06/13 07:56:44;;;;;;;2.75;1.98;;;30.60;32.80;;;;;;5133706;28;20035;-67
2023/06/13 07:59:10;;;;;;;2.45;1.88;;;31.00;32.40;;;;;;5133291;28;20031;-67
2023/06/13 08:01:36;;;;;;;6.35;2.30;;;30.70;32.00;;;;;;5132715;28;20341;-67
2023/06/13 08:04:03;;;;;;;6.75;2.63;;;30.80;31.90;;;;;;5133044;28;20024;-67
2023/06/13 08:06:28;;;;;;;4.50;2.25;;;30.90;31.80;;;;;;5134292;27;20467;-66
2023/06/13 08:08:54;;;;;;;5.97;2.35;;;31.30;33.10;;;;;;5137416;27;20038;-67
2023/06/13 08:11:20;;;;;;;2.88;2.10;;;31.30;31.30;;;;;;5133468;27;20049;-67
2023/06/13 08:13:45;;;;;;;2.03;1.83;;;30.60;31.50;;;;;;5116778;28;20027;-67
2023/06/13 08:16:11;;;;;;;5.85;2.10;;;30.40;32.30;;;;;;5116646;28;20027;-67
2023/06/13 08:18:38;;;;;;;7.63;1.90;;;29.70;33.40;;;;;;5116004;28;20368;-67
2023/06/13 08:21:04;;;;;;;2.83;2.13;;;30.00;34.70;;;;;;5116372;28;20031;-67
2023/06/13 08:23:29;;;;;;;4.03;1.92;;;30.20;33.70;;;;;;5115951;28;20027;-67
2023/06/13 08:25:55;;;;;;;5.65;2.13;;;29.80;33.50;;;;;;5133735;27;20361;-67
2023/06/13 08:28:21;;;;;;;6.03;1.83;;;29.80;33.00;;;;;;5136505;27;20027;-67
2023/06/13 08:30:46;;;;;;;4.97;1.85;;;29.60;31.20;;;;;;5136741;27;20050;-67
2023/06/13 08:33:13;;;;;;;4.78;1.83;;;29.00;32.00;;;;;;5136756;27;20035;-66
2023/06/13 08:35:38;;;;;;;3.05;1.80;;;28.60;30.10;;;;;;5133557;27;20102;-67
2023/06/13 08:38:04;;;;;;;2.88;1.85;;;28.10;30.40;;;;;;5116119;28;20110;-67
2023/06/13 08:40:30;;;;;;;3.40;1.80;;;27.70;31.00;;;;;;5115755;28;20035;-67
2023/06/13 08:42:57;;;;;;;3.00;2.10;;;27.50;32.10;;;;;;5116130;28;20028;-66
2023/06/13 08:45:23;;;;;;;5.63;2.08;;;27.10;32.30;;;;;;5115564;28;20499;-66
2023/06/13 08:47:48;;;;;;;2.47;2.20;;;27.00;33.10;;;;;;5115800;28;20024;-67
2023/06/13 08:50:18;;;;;;;6.93;2.20;;;26.40;34.10;;;;;;5115874;28;20051;-67
2023/06/13 08:52:46;;;;;;;3.80;2.38;;;26.00;34.30;;;;;;5115799;28;20027;-67
2023/06/13 08:55:14;;;;;;;4.05;2.10;;;25.60;35.10;;;;;;5115823;28;20032;-67
2023/06/13 08:57:41;;;;;;;3.42;2.13;;;25.60;35.90;;;;;;5115217;28;20055;-67
2023/06/13 09:00:12;;;;;;;4.03;2.10;;;25.70;36.90;;;;;;5115504;28;20491;-66
2023/06/13 09:02:45;;;;;;;;;;;25.30;35.50;;;;;;5115875;28;20020;-66
2023/06/13 09:05:18;;;;;;;4.25;2.03;;;25.20;36.70;;;;;;5115880;28;20286;-66
2023/06/13 09:07:48;;;;;;;4.43;2.17;;;25.20;38.70;;;;;;5115203;28;20051;-66
2023/06/13 09:10:14;;;;;;;3.97;1.98;;;25.30;39.10;;;;;;5115207;28;20395;-66
2023/06/13 09:12:41;;;;;;;7.63;1.90;;;25.40;37.00;;;;;;5114969;28;20265;-67
2023/06/13 09:15:08;;;;;;;4.85;2.00;;;25.50;38.40;;;;;;5115092;28;20468;-67
2023/06/13 09:17:34;;;;;;;4.43;1.90;;;25.50;35.50;;;;;;5114732;28;20051;-66
2023/06/13 09:20:00;;;;;;;5.93;2.30;;;25.40;33.90;;;;;;5115586;28;20028;-67
2023/06/13 09:22:26;;;;;;;4.70;2.22;;;25.10;34.50;;;;;;5114689;28;20020;-66
2023/06/13 09:24:52;;;;;;;7.03;2.40;;;25.20;35.40;;;;;;5115313;28;20532;-67
2023/06/13 09:27:18;;;;;;;4.53;2.20;;;25.00;34.60;;;;;;5114892;28;20532;-67
2023/06/13 09:29:47;;;;;;;3.40;2.20;;;24.70;34.10;;;;;;5114794;28;20031;-66
2023/06/13 09:32:14;;;;;;;3.08;2.03;;;24.50;34.50;;;;;;5115182;28;20023;-66
2023/06/13 09:34:41;;;;;;;5.07;2.25;;;24.40;34.90;;;;;;5114787;28;20410;-66
2023/06/13 09:37:08;;;;;;;8.55;2.10;;;24.30;35.10;;;;;;5115019;28;20495;-66
2023/06/13 09:39:33;;;;;;;2.65;2.00;;;24.50;36.50;;;;;;5114634;28;20036;-67
2023/06/13 09:42:03;;;;;;;3.50;2.38;;;24.50;36.30;;;;;;5096637;28;20024;-66
2023/06/13 09:44:33;;;;;;;3.45;2.25;;;24.60;35.20;;;;;;5114584;28;20092;-67
2023/06/13 09:47:00;;;;;;;3.53;2.28;;;24.50;35.70;;;;;;5115184;28;20048;-66
2023/06/13 09:49:30;;;;;;;2.35;2.10;;;24.50;36.00;;;;;;5114300;28;20026;-67
2023/06/13 09:51:59;;;;;;;5.68;2.22;;;24.40;34.80;;;;;;5114566;28;20105;-66
2023/06/13 09:54:29;;;;;;;2.50;2.03;;;24.20;34.70;;;;;;5114212;28;20036;-66
2023/06/13 09:56:56;;;;;;;4.05;2.20;;;24.00;34.70;;;;;;5114651;28;20430;-66
2023/06/13 09:59:21;;;;;;;4.20;2.63;;;23.90;34.20;;;;;;5114518;28;20038;-66
2023/06/13 10:01:48;;;;;;;3.92;2.83;;;23.80;35.50;;;;;;5114022;28;20393;-66
2023/06/13 10:04:14;;;;;;;5.32;2.40;;;23.70;34.70;;;;;;5114269;28;20027;-66
2023/06/13 10:06:40;;;;;;;4.35;2.22;;;23.70;35.70;;;;;;5114050;28;20024;-66
2023/06/13 10:09:06;;;;;;;4.03;2.25;;;23.70;36.00;;;;;;5114746;28;20053;-66
2023/06/13 10:11:34;;;;;;;5.78;2.35;;;23.60;36.30;;;;;;5113736;28;20041;-66
2023/06/13 10:14:11;;;;;;;4.57;2.03;;;23.60;36.40;;;;;;5116841;27;20049;-66
2023/06/13 10:16:47;;;;;;;7.45;2.17;;;23.60;36.20;;;;;;5113621;28;20468;-66
2023/06/13 10:19:19;;;;;;;4.30;2.30;;;23.50;36.60;;;;;;5114077;28;20115;-66
2023/06/13 10:21:47;;;;;;;5.60;2.47;;;23.60;36.70;;;;;;5113762;28;20211;-66
2023/06/13 10:24:13;;;;;;;7.20;2.53;;;23.70;38.30;;;;;;5114175;28;20102;-66
2023/06/13 10:26:40;;;;;;;6.85;2.35;;;23.50;37.70;;;;;;5113522;28;20019;-66
2023/06/13 10:29:12;;;;;;;5.05;2.20;;;23.50;37.10;;;;;;5120782;27;20023;-66
2023/06/13 10:31:46;;;;;;;4.80;2.40;;;23.50;37.40;;;;;;5134034;27;20031;-66
2023/06/13 10:34:35;;;;;;;2.72;2.10;;;23.50;37.70;;;;;;5129546;27;20016;-68
2023/06/13 10:37:10;;;;;;;6.13;2.20;;;23.60;36.80;;;;;;5113718;28;20023;-66
2023/06/13 10:39:54;;;;;;;3.25;2.17;;;23.50;36.70;;;;;;5113231;28;20027;-66
2023/06/13 10:42:31;;;;;;;3.58;1.98;;;23.50;34.10;;;;;;5113790;28;20026;-66
2023/06/13 10:45:08;;;;;;;5.20;2.35;;;23.50;35.80;;;;;;5113465;28;20066;-67
2023/06/13 10:47:37;;;;;;;5.22;2.50;;;23.70;36.70;;;;;;5113015;28;20065;-67
2023/06/13 10:50:03;;;;;;;3.97;2.85;;;23.70;36.30;;;;;;5113421;28;20060;-67
2023/06/13 10:52:30;;;;;;;6.75;2.30;;;23.70;36.70;;;;;;5113070;28;20024;-67
2023/06/13 10:55:01;;;;;;;5.00;2.45;;;23.70;36.80;;;;;;5113210;28;20114;-66
2023/06/13 10:57:49;;;;;;;8.88;2.38;;;23.80;37.20;;;;;;5113252;28;20115;-66
2023/06/13 11:00:34;;;;;;;5.50;2.55;;;23.80;35.30;;;;;;5113051;28;20332;-66
2023/06/13 11:03:05;;;;;;;3.85;2.25;;;23.80;36.40;;;;;;5113281;28;20024;-67
2023/06/13 11:05:36;;;;;;;4.47;2.25;;;23.80;35.30;;;;;;5112701;28;20027;-67
2023/06/13 11:08:05;;;;;;;4.90;2.25;;;23.90;35.10;;;;;;5113502;28;20424;-66
2023/06/13 11:10:34;;;;;;;3.63;2.10;;;24.10;36.00;;;;;;5112893;28;20456;-66
2023/06/13 11:13:03;;;;;;;6.97;2.33;;;24.00;35.80;;;;;;5113560;28;20405;-65
2023/06/13 11:15:29;;;;;;;2.83;2.10;;;23.80;34.60;;;;;;5113516;28;20084;-68
2023/06/13 11:18:03;;;;;;;6.25;2.30;;;23.90;35.30;;;;;;5113306;28;20024;-65
2023/06/13 11:20:31;;;;;;;5.82;1.98;;;23.80;33.60;;;;;;5112970;28;20036;-67
2023/06/13 11:22:57;;;;;;;4.85;2.17;;;23.80;33.70;;;;;;5112864;28;20024;-66
2023/06/13 11:25:23;;;;;;;5.43;2.22;;;23.80;34.20;;;;;;5113241;28;20415;-66
2023/06/13 11:27:49;;;;;;;3.70;2.00;;;23.70;34.50;;;;;;5112456;28;20023;-66
2023/06/13 11:30:15;;;;;;;6.35;2.08;;;23.80;36.30;;;;;;5112965;28;20063;-66
2023/06/13 11:32:43;;;;;;;3.47;1.98;;;23.80;35.70;;;;;;5111920;28;20502;-66
2023/06/13 11:35:10;;;;;;;4.15;1.90;;;23.90;35.80;;;;;;5113101;28;20058;-66
2023/06/13 11:37:44;;;;;;;5.22;2.20;;;23.90;36.00;;;;;;5112469;28;20057;-66
2023/06/13 11:40:15;;;;;;;2.90;2.38;;;23.90;35.10;;;;;;5112387;28;20391;-66
2023/06/13 11:42:41;;;;;;;5.13;2.40;;;23.80;34.40;;;;;;5115871;28;20023;-66
2023/06/13 11:45:08;;;;;;;3.28;2.15;;;23.80;34.80;;;;;;5116657;28;20376;-66
2023/06/13 11:47:33;;;;;;;4.50;2.30;;;23.80;34.40;;;;;;5116221;28;20027;-66
2023/06/13 11:49:59;;;;;;;4.63;2.20;;;23.80;35.30;;;;;;5116470;28;20531;-66
2023/06/13 11:52:25;;;;;;;5.50;2.22;;;23.80;35.40;;;;;;5117090;28;20024;-66
2023/06/13 11:54:51;;;;;;;7.07;2.00;;;23.80;35.10;;;;;;5116231;28;20048;-65
2023/06/13 11:57:17;;;;;;;2.75;2.30;;;23.80;34.60;;;;;;5116648;28;20077;-65
2023/06/13 11:59:43;;;;;;;2.25;2.00;;;23.80;35.70;;;;;;5116240;28;20038;-65
2023/06/13 12:02:12;;;;;;;5.22;2.30;;;23.80;34.30;;;;;;5116339;28;20414;-66
2023/06/13 12:04:39;;;;;;;3.20;2.30;;;23.80;32.90;;;;;;5115902;28;20024;-66
2023/06/13 12:07:06;;;;;;;3.63;2.22;;;23.80;32.20;;;;;;5118999;27;20028;-65
2023/06/13 12:09:32;;;;;;;4.57;2.20;;;23.70;33.70;;;;;;5116534;28;20115;-65
2023/06/13 12:11:58;;;;;;;3.47;2.05;;;23.70;33.60;;;;;;5116515;28;20106;-66
2023/06/13 12:14:24;;;;;;;4.97;2.20;;;23.60;33.60;;;;;;5116495;28;20024;-65
2023/06/13 12:16:53;;;;;;;7.90;2.30;;;23.50;34.20;;;;;;5116113;28;20111;-66
2023/06/13 12:19:20;;;;;;;5.75;2.35;;;23.50;35.20;;;;;;5116406;28;20080;-66
2023/06/13 12:21:48;;;;;;;5.18;2.05;;;23.40;35.80;;;;;;5115823;28;20039;-66
2023/06/13 12:24:14;;;;;;;4.82;2.38;;;23.30;36.50;;;;;;5131850;27;20084;-66
2023/06/13 12:26:43;;;;;;;3.15;2.13;;;23.30;37.20;;;;;;5136334;27;20448;-66
2023/06/13 12:29:11;;;;;;;5.93;1.95;;;23.30;38.20;;;;;;5137009;27;20034;-66
2023/06/13 12:31:38;;;;;;;2.63;1.98;;;23.30;37.70;;;;;;5136375;27;20099;-66
2023/06/13 12:34:08;;;;;;;4.90;2.10;;;23.30;38.50;;;;;;5136709;27;20031;-66
2023/06/13 12:36:44;;;;;;;6.30;2.15;;;23.30;38.30;;;;;;5136457;27;20053;-66
2023/06/13 12:39:11;;;;;;;8.13;2.40;;;23.20;38.40;;;;;;5136782;27;20076;-66
2023/06/13 12:41:38;;;;;;;4.78;2.53;;;23.20;38.80;;;;;;5131993;27;20022;-66
2023/06/13 12:44:06;;;;;;;3.90;2.55;;;23.10;39.40;;;;;;5136601;27;20027;-66
2023/06/13 12:46:38;;;;;;;6.55;2.25;;;23.20;40.20;;;;;;5136695;27;20086;-66